sensor_id;sensor_type;location;lat;lon;timestamp;temperature;humidity
17208;DHT22;8720;48.488;9.202;2022-08-21T00:00:54;18.00;62.20
17208;DHT22;8720;48.488;9.202;2022-08-21T00:03:21;17.90;62.30
17208;DHT22;8720;48.488;9.202;2022-08-21T00:05:50;17.90;62.50
17208;DHT22;8720;48.488;9.202;2022-08-21T00:08:18;17.90;62.80
17208;DHT22;8720;48.488;9.202;2022-08-21T00:10:47;17.80;62.80
17208;DHT22;8720;48.488;9.202;2022-08-21T00:13:17;17.80;62.90
17208;DHT22;8720;48.488;9.202;2022-08-21T00:15:46;17.80;62.70
17208;DHT22;8720;48.488;9.202;2022-08-21T00:18:15;17.70;62.70
17208;DHT22;8720;48.488;9.202;2022-08-21T00:20:44;17.70;62.80
17208;DHT22;8720;48.488;9.202;2022-08-21T00:23:12;17.70;62.80
17208;DHT22;8720;48.488;9.202;2022-08-21T00:25:41;17.60;62.80
17208;DHT22;8720;48.488;9.202;2022-08-21T00:28:10;17.60;63.00
17208;DHT22;8720;48.488;9.202;2022-08-21T00:30:41;17.60;63.00
17208;DHT22;8720;48.488;9.202;2022-08-21T00:33:10;17.50;62.90
17208;DHT22;8720;48.488;9.202;2022-08-21T00:35:41;17.50;63.10
17208;DHT22;8720;48.488;9.202;2022-08-21T00:38:09;17.50;63.40
17208;DHT22;8720;48.488;9.202;2022-08-21T00:40:40;17.50;63.60
17208;DHT22;8720;48.488;9.202;2022-08-21T00:43:12;17.40;63.60
17208;DHT22;8720;48.488;9.202;2022-08-21T00:45:44;17.40;63.50
17208;DHT22;8720;48.488;9.202;2022-08-21T00:48:11;17.40;63.60
17208;DHT22;8720;48.488;9.202;2022-08-21T00:50:43;17.40;63.80
17208;DHT22;8720;48.488;9.202;2022-08-21T00:53:15;17.30;64.00
17208;DHT22;8720;48.488;9.202;2022-08-21T00:55:45;17.30;64.00
17208;DHT22;8720;48.488;9.202;2022-08-21T00:58:14;17.30;64.00
17208;DHT22;8720;48.488;9.202;2022-08-21T01:00:47;17.20;64.00
17208;DHT22;8720;48.488;9.202;2022-08-21T01:03:18;17.20;64.10
17208;DHT22;8720;48.488;9.202;2022-08-21T01:05:47;17.20;64.00
17208;DHT22;8720;48.488;9.202;2022-08-21T01:08:16;17.20;64.00
17208;DHT22;8720;48.488;9.202;2022-08-21T01:10:44;17.10;64.10
17208;DHT22;8720;48.488;9.202;2022-08-21T01:13:16;17.10;64.20
17208;DHT22;8720;48.488;9.202;2022-08-21T01:15:48;17.10;64.20
17208;DHT22;8720;48.488;9.202;2022-08-21T01:18:18;17.10;64.10
17208;DHT22;8720;48.488;9.202;2022-08-21T01:21:00;17.10;64.00
17208;DHT22;8720;48.488;9.202;2022-08-21T01:23:30;17.00;64.00
17208;DHT22;8720;48.488;9.202;2022-08-21T01:25:58;17.00;63.90
17208;DHT22;8720;48.488;9.202;2022-08-21T01:28:26;17.00;63.80
17208;DHT22;8720;48.488;9.202;2022-08-21T01:30:58;17.00;64.00
17208;DHT22;8720;48.488;9.202;2022-08-21T01:33:28;17.00;63.80
17208;DHT22;8720;48.488;9.202;2022-08-21T01:35:55;17.00;63.90
17208;DHT22;8720;48.488;9.202;2022-08-21T01:38:25;17.00;63.90
17208;DHT22;8720;48.488;9.202;2022-08-21T01:40:53;17.00;64.00
17208;DHT22;8720;48.488;9.202;2022-08-21T01:43:20;16.90;63.90
17208;DHT22;8720;48.488;9.202;2022-08-21T01:45:47;16.90;63.80
17208;DHT22;8720;48.488;9.202;2022-08-21T01:48:14;16.90;63.80
17208;DHT22;8720;48.488;9.202;2022-08-21T01:50:42;16.90;63.70
17208;DHT22;8720;48.488;9.202;2022-08-21T01:53:09;16.90;63.70
17208;DHT22;8720;48.488;9.202;2022-08-21T01:55:38;16.80;63.50
17208;DHT22;8720;48.488;9.202;2022-08-21T01:58:05;16.80;63.60
17208;DHT22;8720;48.488;9.202;2022-08-21T02:03:08;16.70;63.50
17208;DHT22;8720;48.488;9.202;2022-08-21T02:05:35;16.70;63.60
17208;DHT22;8720;48.488;9.202;2022-08-21T02:08:03;16.70;63.80
17208;DHT22;8720;48.488;9.202;2022-08-21T02:10:33;16.60;63.80
17208;DHT22;8720;48.488;9.202;2022-08-21T02:13:02;16.60;63.80
17208;DHT22;8720;48.488;9.202;2022-08-21T02:15:30;16.60;63.90
17208;DHT22;8720;48.488;9.202;2022-08-21T02:18:00;16.60;64.00
17208;DHT22;8720;48.488;9.202;2022-08-21T02:20:30;16.50;64.00
17208;DHT22;8720;48.488;9.202;2022-08-21T02:22:58;16.50;63.60
17208;DHT22;8720;48.488;9.202;2022-08-21T02:25:26;16.50;64.30
17208;DHT22;8720;48.488;9.202;2022-08-21T02:27:57;16.50;64.40
17208;DHT22;8720;48.488;9.202;2022-08-21T02:30:29;16.40;64.40
17208;DHT22;8720;48.488;9.202;2022-08-21T02:32:59;16.40;64.60
17208;DHT22;8720;48.488;9.202;2022-08-21T02:35:27;16.40;64.60
17208;DHT22;8720;48.488;9.202;2022-08-21T02:37:57;16.40;64.80
17208;DHT22;8720;48.488;9.202;2022-08-21T02:40:35;16.40;64.90
17208;DHT22;8720;48.488;9.202;2022-08-21T02:43:05;16.40;65.10
17208;DHT22;8720;48.488;9.202;2022-08-21T02:45:35;16.30;64.90
17208;DHT22;8720;48.488;9.202;2022-08-21T02:48:05;16.30;65.00
17208;DHT22;8720;48.488;9.202;2022-08-21T02:50:39;16.30;65.10
17208;DHT22;8720;48.488;9.202;2022-08-21T02:53:09;16.30;65.30
17208;DHT22;8720;48.488;9.202;2022-08-21T02:55:38;16.30;65.40
17208;DHT22;8720;48.488;9.202;2022-08-21T02:58:07;16.30;65.40
17208;DHT22;8720;48.488;9.202;2022-08-21T03:00:37;16.20;65.40
17208;DHT22;8720;48.488;9.202;2022-08-21T03:03:04;16.20;65.70
17208;DHT22;8720;48.488;9.202;2022-08-21T03:05:34;16.20;65.70
17208;DHT22;8720;48.488;9.202;2022-08-21T03:08:06;16.20;65.70
17208;DHT22;8720;48.488;9.202;2022-08-21T03:10:36;16.20;65.80
17208;DHT22;8720;48.488;9.202;2022-08-21T03:13:05;16.20;65.80
17208;DHT22;8720;48.488;9.202;2022-08-21T03:15:33;16.10;65.70
17208;DHT22;8720;48.488;9.202;2022-08-21T03:18:03;16.10;65.70
17208;DHT22;8720;48.488;9.202;2022-08-21T03:20:31;16.10;65.80
17208;DHT22;8720;48.488;9.202;2022-08-21T03:23:00;16.10;65.90
17208;DHT22;8720;48.488;9.202;2022-08-21T03:25:30;16.00;65.80
17208;DHT22;8720;48.488;9.202;2022-08-21T03:27:58;16.00;65.70
17208;DHT22;8720;48.488;9.202;2022-08-21T03:30:26;16.00;65.80
17208;DHT22;8720;48.488;9.202;2022-08-21T03:32:54;16.00;65.80
17208;DHT22;8720;48.488;9.202;2022-08-21T03:35:22;15.90;65.80
17208;DHT22;8720;48.488;9.202;2022-08-21T03:37:50;15.90;65.90
17208;DHT22;8720;48.488;9.202;2022-08-21T03:40:18;15.90;65.90
17208;DHT22;8720;48.488;9.202;2022-08-21T03:42:47;15.90;65.90
17208;DHT22;8720;48.488;9.202;2022-08-21T03:45:15;15.80;65.90
17208;DHT22;8720;48.488;9.202;2022-08-21T03:47:53;15.80;66.00
17208;DHT22;8720;48.488;9.202;2022-08-21T03:50:27;15.80;66.30
17208;DHT22;8720;48.488;9.202;2022-08-21T03:52:56;15.80;66.30
17208;DHT22;8720;48.488;9.202;2022-08-21T03:55:25;15.80;66.40
17208;DHT22;8720;48.488;9.202;2022-08-21T03:57:53;15.80;66.40
17208;DHT22;8720;48.488;9.202;2022-08-21T04:00:22;15.80;66.40
17208;DHT22;8720;48.488;9.202;2022-08-21T04:02:50;15.70;66.40
17208;DHT22;8720;48.488;9.202;2022-08-21T04:05:18;15.70;66.50
17208;DHT22;8720;48.488;9.202;2022-08-21T04:07:55;15.70;66.50
17208;DHT22;8720;48.488;9.202;2022-08-21T04:10:24;15.70;66.60
17208;DHT22;8720;48.488;9.202;2022-08-21T04:12:53;15.70;66.60
17208;DHT22;8720;48.488;9.202;2022-08-21T04:15:22;15.70;66.60
17208;DHT22;8720;48.488;9.202;2022-08-21T04:17:52;15.70;66.70
17208;DHT22;8720;48.488;9.202;2022-08-21T04:20:20;15.60;66.50
17208;DHT22;8720;48.488;9.202;2022-08-21T04:22:49;15.60;66.50
17208;DHT22;8720;48.488;9.202;2022-08-21T04:25:21;15.60;66.60
17208;DHT22;8720;48.488;9.202;2022-08-21T04:27:49;15.60;66.60
17208;DHT22;8720;48.488;9.202;2022-08-21T04:30:18;15.60;66.60
17208;DHT22;8720;48.488;9.202;2022-08-21T04:32:47;15.60;66.70
17208;DHT22;8720;48.488;9.202;2022-08-21T04:35:18;15.60;66.70
17208;DHT22;8720;48.488;9.202;2022-08-21T04:37:47;15.50;66.60
17208;DHT22;8720;48.488;9.202;2022-08-21T04:40:16;15.50;66.70
17208;DHT22;8720;48.488;9.202;2022-08-21T04:42:49;15.50;66.80
17208;DHT22;8720;48.488;9.202;2022-08-21T04:45:19;15.50;66.90
17208;DHT22;8720;48.488;9.202;2022-08-21T04:47:50;15.50;67.00
17208;DHT22;8720;48.488;9.202;2022-08-21T04:50:18;15.50;67.00
17208;DHT22;8720;48.488;9.202;2022-08-21T04:53:03;15.50;67.00
17208;DHT22;8720;48.488;9.202;2022-08-21T04:55:33;15.50;67.00
17208;DHT22;8720;48.488;9.202;2022-08-21T04:58:01;15.50;67.10
17208;DHT22;8720;48.488;9.202;2022-08-21T05:00:28;15.50;67.20
17208;DHT22;8720;48.488;9.202;2022-08-21T05:02:56;15.50;67.30
17208;DHT22;8720;48.488;9.202;2022-08-21T05:05:28;15.60;67.60
17208;DHT22;8720;48.488;9.202;2022-08-21T05:07:57;15.60;67.90
17208;DHT22;8720;48.488;9.202;2022-08-21T05:10:27;15.60;67.90
17208;DHT22;8720;48.488;9.202;2022-08-21T05:12:58;15.60;67.90
17208;DHT22;8720;48.488;9.202;2022-08-21T05:15:27;15.70;68.20
17208;DHT22;8720;48.488;9.202;2022-08-21T05:17:55;15.70;68.20
17208;DHT22;8720;48.488;9.202;2022-08-21T05:20:23;15.70;68.90
17208;DHT22;8720;48.488;9.202;2022-08-21T05:22:50;15.80;68.30
17208;DHT22;8720;48.488;9.202;2022-08-21T05:25:17;15.80;68.30
17208;DHT22;8720;48.488;9.202;2022-08-21T05:27:45;15.80;68.40
17208;DHT22;8720;48.488;9.202;2022-08-21T05:30:14;15.90;68.50
17208;DHT22;8720;48.488;9.202;2022-08-21T05:32:41;15.90;68.50
17208;DHT22;8720;48.488;9.202;2022-08-21T05:35:08;16.00;68.70
17208;DHT22;8720;48.488;9.202;2022-08-21T05:37:37;16.00;68.80
17208;DHT22;8720;48.488;9.202;2022-08-21T05:40:05;16.10;68.80
17208;DHT22;8720;48.488;9.202;2022-08-21T05:42:33;16.10;68.60
17208;DHT22;8720;48.488;9.202;2022-08-21T05:45:00;16.20;68.30
17208;DHT22;8720;48.488;9.202;2022-08-21T05:47:29;16.30;68.20
17208;DHT22;8720;48.488;9.202;2022-08-21T05:49:56;16.30;68.20
17208;DHT22;8720;48.488;9.202;2022-08-21T05:52:23;16.40;68.30
17208;DHT22;8720;48.488;9.202;2022-08-21T05:54:51;16.40;68.20
17208;DHT22;8720;48.488;9.202;2022-08-21T05:57:20;16.50;67.90
17208;DHT22;8720;48.488;9.202;2022-08-21T05:59:48;16.50;67.80
17208;DHT22;8720;48.488;9.202;2022-08-21T06:02:17;16.60;67.80
17208;DHT22;8720;48.488;9.202;2022-08-21T06:04:47;16.60;67.90
17208;DHT22;8720;48.488;9.202;2022-08-21T06:07:15;16.70;67.80
17208;DHT22;8720;48.488;9.202;2022-08-21T06:09:42;16.80;67.90
17208;DHT22;8720;48.488;9.202;2022-08-21T06:12:11;16.90;67.80
17208;DHT22;8720;48.488;9.202;2022-08-21T06:14:40;17.00;67.50
17208;DHT22;8720;48.488;9.202;2022-08-21T06:17:10;17.00;67.90
17208;DHT22;8720;48.488;9.202;2022-08-21T06:19:39;17.10;68.00
17208;DHT22;8720;48.488;9.202;2022-08-21T06:22:07;17.30;69.60
17208;DHT22;8720;48.488;9.202;2022-08-21T06:24:35;17.70;70.10
17208;DHT22;8720;48.488;9.202;2022-08-21T06:27:04;18.10;70.20
17208;DHT22;8720;48.488;9.202;2022-08-21T06:29:33;18.60;69.10
17208;DHT22;8720;48.488;9.202;2022-08-21T06:32:01;19.20;69.70
17208;DHT22;8720;48.488;9.202;2022-08-21T06:34:29;19.80;69.00
17208;DHT22;8720;48.488;9.202;2022-08-21T06:36:57;20.40;67.40
17208;DHT22;8720;48.488;9.202;2022-08-21T06:39:25;21.00;66.50
17208;DHT22;8720;48.488;9.202;2022-08-21T06:41:53;21.60;64.20
17208;DHT22;8720;48.488;9.202;2022-08-21T06:44:27;22.10;63.90
17208;DHT22;8720;48.488;9.202;2022-08-21T06:46:55;22.60;62.10
17208;DHT22;8720;48.488;9.202;2022-08-21T06:49:23;23.20;61.40
17208;DHT22;8720;48.488;9.202;2022-08-21T06:51:50;23.60;60.30
17208;DHT22;8720;48.488;9.202;2022-08-21T06:54:17;24.00;59.60
17208;DHT22;8720;48.488;9.202;2022-08-21T06:56:46;24.50;59.10
17208;DHT22;8720;48.488;9.202;2022-08-21T06:59:13;24.90;57.00
17208;DHT22;8720;48.488;9.202;2022-08-21T07:01:41;25.30;57.10
17208;DHT22;8720;48.488;9.202;2022-08-21T07:04:08;25.70;56.50
17208;DHT22;8720;48.488;9.202;2022-08-21T07:06:36;26.10;55.90
17208;DHT22;8720;48.488;9.202;2022-08-21T07:09:03;26.40;54.50
17208;DHT22;8720;48.488;9.202;2022-08-21T07:11:31;26.70;54.00
17208;DHT22;8720;48.488;9.202;2022-08-21T07:13:59;27.10;53.30
17208;DHT22;8720;48.488;9.202;2022-08-21T07:16:26;27.30;52.00
17208;DHT22;8720;48.488;9.202;2022-08-21T07:18:54;27.60;52.00
17208;DHT22;8720;48.488;9.202;2022-08-21T07:21:22;27.80;51.30
17208;DHT22;8720;48.488;9.202;2022-08-21T07:23:51;28.00;50.40
17208;DHT22;8720;48.488;9.202;2022-08-21T07:26:20;28.30;49.20
17208;DHT22;8720;48.488;9.202;2022-08-21T07:28:50;28.40;48.90
17208;DHT22;8720;48.488;9.202;2022-08-21T07:31:21;28.60;48.80
17208;DHT22;8720;48.488;9.202;2022-08-21T07:33:50;28.70;47.70
17208;DHT22;8720;48.488;9.202;2022-08-21T07:36:17;28.90;48.20
17208;DHT22;8720;48.488;9.202;2022-08-21T07:38:45;29.00;47.80
17208;DHT22;8720;48.488;9.202;2022-08-21T07:41:14;29.20;47.00
17208;DHT22;8720;48.488;9.202;2022-08-21T07:43:45;29.30;45.40
17208;DHT22;8720;48.488;9.202;2022-08-21T07:46:13;29.40;45.70
17208;DHT22;8720;48.488;9.202;2022-08-21T07:48:42;29.40;45.40
17208;DHT22;8720;48.488;9.202;2022-08-21T07:51:12;29.50;44.90
17208;DHT22;8720;48.488;9.202;2022-08-21T07:53:40;29.50;44.80
17208;DHT22;8720;48.488;9.202;2022-08-21T07:56:08;29.50;44.80
17208;DHT22;8720;48.488;9.202;2022-08-21T07:58:36;29.50;44.30
17208;DHT22;8720;48.488;9.202;2022-08-21T08:01:05;29.50;44.40
17208;DHT22;8720;48.488;9.202;2022-08-21T08:03:32;29.40;43.80
17208;DHT22;8720;48.488;9.202;2022-08-21T08:06:01;29.40;43.80
17208;DHT22;8720;48.488;9.202;2022-08-21T08:08:30;29.40;43.60
17208;DHT22;8720;48.488;9.202;2022-08-21T08:10:58;29.40;44.10
17208;DHT22;8720;48.488;9.202;2022-08-21T08:13:27;29.40;43.70
17208;DHT22;8720;48.488;9.202;2022-08-21T08:15:55;29.50;38.90
17208;DHT22;8720;48.488;9.202;2022-08-21T08:18:22;29.40;41.10
17208;DHT22;8720;48.488;9.202;2022-08-21T08:20:49;29.50;41.60
17208;DHT22;8720;48.488;9.202;2022-08-21T08:23:18;29.50;41.90
17208;DHT22;8720;48.488;9.202;2022-08-21T08:25:45;29.60;41.00
17208;DHT22;8720;48.488;9.202;2022-08-21T08:28:12;29.60;41.10
17208;DHT22;8720;48.488;9.202;2022-08-21T08:30:40;29.70;41.40
17208;DHT22;8720;48.488;9.202;2022-08-21T08:33:08;29.70;40.40
17208;DHT22;8720;48.488;9.202;2022-08-21T08:35:35;29.70;40.50
17208;DHT22;8720;48.488;9.202;2022-08-21T08:38:03;29.70;40.40
17208;DHT22;8720;48.488;9.202;2022-08-21T08:40:39;29.60;40.40
17208;DHT22;8720;48.488;9.202;2022-08-21T08:43:10;29.50;39.20
17208;DHT22;8720;48.488;9.202;2022-08-21T08:45:42;29.40;40.30
17208;DHT22;8720;48.488;9.202;2022-08-21T08:48:14;29.20;39.70
17208;DHT22;8720;48.488;9.202;2022-08-21T08:50:57;29.00;39.40
17208;DHT22;8720;48.488;9.202;2022-08-21T08:53:32;28.90;39.70
17208;DHT22;8720;48.488;9.202;2022-08-21T08:56:06;28.80;39.30
17208;DHT22;8720;48.488;9.202;2022-08-21T08:58:37;28.60;39.70
17208;DHT22;8720;48.488;9.202;2022-08-21T09:01:15;28.50;39.50
17208;DHT22;8720;48.488;9.202;2022-08-21T09:03:46;28.40;39.40
17208;DHT22;8720;48.488;9.202;2022-08-21T09:06:27;28.30;40.10
17208;DHT22;8720;48.488;9.202;2022-08-21T09:09:07;28.10;40.20
17208;DHT22;8720;48.488;9.202;2022-08-21T09:11:56;28.10;40.60
17208;DHT22;8720;48.488;9.202;2022-08-21T09:14:39;28.00;40.30
17208;DHT22;8720;48.488;9.202;2022-08-21T09:17:29;28.00;40.40
17208;DHT22;8720;48.488;9.202;2022-08-21T09:20:16;27.90;40.10
17208;DHT22;8720;48.488;9.202;2022-08-21T09:23:12;27.90;40.10
17208;DHT22;8720;48.488;9.202;2022-08-21T09:25:55;27.80;39.80
17208;DHT22;8720;48.488;9.202;2022-08-21T09:28:33;27.80;40.40
17208;DHT22;8720;48.488;9.202;2022-08-21T09:31:05;27.80;40.20
17208;DHT22;8720;48.488;9.202;2022-08-21T09:33:33;27.80;40.40
17208;DHT22;8720;48.488;9.202;2022-08-21T09:36:01;27.70;40.80
17208;DHT22;8720;48.488;9.202;2022-08-21T09:38:31;27.70;41.30
17208;DHT22;8720;48.488;9.202;2022-08-21T09:41:02;27.70;40.90
17208;DHT22;8720;48.488;9.202;2022-08-21T09:43:36;27.70;39.90
17208;DHT22;8720;48.488;9.202;2022-08-21T09:46:08;27.60;39.30
17208;DHT22;8720;48.488;9.202;2022-08-21T09:48:42;27.60;39.00
17208;DHT22;8720;48.488;9.202;2022-08-21T09:51:14;27.50;38.70
17208;DHT22;8720;48.488;9.202;2022-08-21T09:53:48;27.50;39.00
17208;DHT22;8720;48.488;9.202;2022-08-21T09:56:27;27.40;38.90
17208;DHT22;8720;48.488;9.202;2022-08-21T09:59:19;27.40;39.20
17208;DHT22;8720;48.488;9.202;2022-08-21T10:01:54;27.30;39.30
17208;DHT22;8720;48.488;9.202;2022-08-21T10:04:23;27.20;39.80
17208;DHT22;8720;48.488;9.202;2022-08-21T10:06:54;27.20;39.60
17208;DHT22;8720;48.488;9.202;2022-08-21T10:09:21;27.10;39.70
17208;DHT22;8720;48.488;9.202;2022-08-21T10:11:57;27.10;40.00
17208;DHT22;8720;48.488;9.202;2022-08-21T10:14:44;27.00;38.90
17208;DHT22;8720;48.488;9.202;2022-08-21T10:17:24;27.00;38.60
17208;DHT22;8720;48.488;9.202;2022-08-21T10:20:04;26.90;38.90
17208;DHT22;8720;48.488;9.202;2022-08-21T10:22:45;26.80;38.70
17208;DHT22;8720;48.488;9.202;2022-08-21T10:25:25;26.70;38.20
17208;DHT22;8720;48.488;9.202;2022-08-21T10:28:01;26.70;38.70
17208;DHT22;8720;48.488;9.202;2022-08-21T10:30:45;26.60;38.90
17208;DHT22;8720;48.488;9.202;2022-08-21T10:33:28;26.60;38.70
17208;DHT22;8720;48.488;9.202;2022-08-21T10:36:09;26.50;38.30
17208;DHT22;8720;48.488;9.202;2022-08-21T10:39:02;26.50;38.70
17208;DHT22;8720;48.488;9.202;2022-08-21T10:42:08;26.50;38.30
17208;DHT22;8720;48.488;9.202;2022-08-21T10:44:57;26.50;38.20
17208;DHT22;8720;48.488;9.202;2022-08-21T10:47:43;26.50;38.60
17208;DHT22;8720;48.488;9.202;2022-08-21T10:50:19;26.50;38.50
17208;DHT22;8720;48.488;9.202;2022-08-21T10:53:25;26.50;38.10
17208;DHT22;8720;48.488;9.202;2022-08-21T10:56:12;26.50;38.00
17208;DHT22;8720;48.488;9.202;2022-08-21T10:58:51;26.50;38.50
17208;DHT22;8720;48.488;9.202;2022-08-21T11:01:32;26.50;38.80
17208;DHT22;8720;48.488;9.202;2022-08-21T11:04:13;26.50;39.20
17208;DHT22;8720;48.488;9.202;2022-08-21T11:06:48;26.60;38.30
17208;DHT22;8720;48.488;9.202;2022-08-21T11:09:22;26.60;38.50
17208;DHT22;8720;48.488;9.202;2022-08-21T11:11:56;26.60;39.10
17208;DHT22;8720;48.488;9.202;2022-08-21T11:14:36;26.60;37.90
17208;DHT22;8720;48.488;9.202;2022-08-21T11:17:10;26.60;37.80
17208;DHT22;8720;48.488;9.202;2022-08-21T11:19:47;26.50;38.60
17208;DHT22;8720;48.488;9.202;2022-08-21T11:22:21;26.50;37.90
17208;DHT22;8720;48.488;9.202;2022-08-21T11:24:57;26.50;38.90
17208;DHT22;8720;48.488;9.202;2022-08-21T11:27:34;26.50;38.90
17208;DHT22;8720;48.488;9.202;2022-08-21T11:30:08;26.60;38.60
17208;DHT22;8720;48.488;9.202;2022-08-21T11:32:57;26.60;38.70
17208;DHT22;8720;48.488;9.202;2022-08-21T11:35:40;26.60;37.80
17208;DHT22;8720;48.488;9.202;2022-08-21T11:38:26;26.70;38.60
17208;DHT22;8720;48.488;9.202;2022-08-21T11:41:03;26.70;37.70
17208;DHT22;8720;48.488;9.202;2022-08-21T11:43:42;26.70;37.90
17208;DHT22;8720;48.488;9.202;2022-08-21T11:46:22;26.80;38.30
17208;DHT22;8720;48.488;9.202;2022-08-21T11:49:17;26.80;38.20
17208;DHT22;8720;48.488;9.202;2022-08-21T11:52:07;26.90;37.60
17208;DHT22;8720;48.488;9.202;2022-08-21T11:54:48;26.90;37.80
17208;DHT22;8720;48.488;9.202;2022-08-21T11:57:23;26.90;37.50
17208;DHT22;8720;48.488;9.202;2022-08-21T12:00:00;26.90;37.30
17208;DHT22;8720;48.488;9.202;2022-08-21T12:02:54;26.90;37.50
17208;DHT22;8720;48.488;9.202;2022-08-21T12:05:27;27.00;37.00
17208;DHT22;8720;48.488;9.202;2022-08-21T12:08:08;27.00;37.90
17208;DHT22;8720;48.488;9.202;2022-08-21T12:10:40;27.00;37.50
17208;DHT22;8720;48.488;9.202;2022-08-21T12:13:23;27.00;37.90
17208;DHT22;8720;48.488;9.202;2022-08-21T12:15:52;27.10;37.10
17208;DHT22;8720;48.488;9.202;2022-08-21T12:18:28;27.10;37.60
17208;DHT22;8720;48.488;9.202;2022-08-21T12:21:01;27.10;36.90
17208;DHT22;8720;48.488;9.202;2022-08-21T12:23:43;27.20;37.10
17208;DHT22;8720;48.488;9.202;2022-08-21T12:26:25;27.30;37.10
17208;DHT22;8720;48.488;9.202;2022-08-21T12:29:15;27.30;37.00
17208;DHT22;8720;48.488;9.202;2022-08-21T12:31:58;27.30;36.20
17208;DHT22;8720;48.488;9.202;2022-08-21T12:34:36;27.30;36.10
17208;DHT22;8720;48.488;9.202;2022-08-21T12:37:15;27.30;36.30
17208;DHT22;8720;48.488;9.202;2022-08-21T12:39:51;27.30;35.50
17208;DHT22;8720;48.488;9.202;2022-08-21T12:42:23;27.30;36.70
17208;DHT22;8720;48.488;9.202;2022-08-21T12:45:03;27.30;36.70
17208;DHT22;8720;48.488;9.202;2022-08-21T12:47:48;27.40;36.70
17208;DHT22;8720;48.488;9.202;2022-08-21T12:50:29;27.40;36.40
17208;DHT22;8720;48.488;9.202;2022-08-21T12:53:05;27.50;36.40
17208;DHT22;8720;48.488;9.202;2022-08-21T12:55:41;27.50;36.20
17208;DHT22;8720;48.488;9.202;2022-08-21T12:58:18;27.60;35.90
17208;DHT22;8720;48.488;9.202;2022-08-21T13:00:51;27.60;35.90
17208;DHT22;8720;48.488;9.202;2022-08-21T13:03:22;27.60;35.80
17208;DHT22;8720;48.488;9.202;2022-08-21T13:05:50;27.60;36.60
17208;DHT22;8720;48.488;9.202;2022-08-21T13:08:20;27.70;36.40
17208;DHT22;8720;48.488;9.202;2022-08-21T13:10:57;27.70;36.10
17208;DHT22;8720;48.488;9.202;2022-08-21T13:13:28;27.80;35.60
17208;DHT22;8720;48.488;9.202;2022-08-21T13:15:58;27.80;36.20
17208;DHT22;8720;48.488;9.202;2022-08-21T13:18:30;27.90;35.60
17208;DHT22;8720;48.488;9.202;2022-08-21T13:21:05;27.90;35.30
17208;DHT22;8720;48.488;9.202;2022-08-21T13:23:36;27.90;35.20
17208;DHT22;8720;48.488;9.202;2022-08-21T13:26:14;27.90;35.50
17208;DHT22;8720;48.488;9.202;2022-08-21T13:28:42;27.90;34.70
17208;DHT22;8720;48.488;9.202;2022-08-21T13:31:17;27.90;35.40
17208;DHT22;8720;48.488;9.202;2022-08-21T13:33:48;28.00;35.10
17208;DHT22;8720;48.488;9.202;2022-08-21T13:36:20;28.00;34.80
17208;DHT22;8720;48.488;9.202;2022-08-21T13:38:53;28.00;35.00
17208;DHT22;8720;48.488;9.202;2022-08-21T13:41:24;28.00;35.20
17208;DHT22;8720;48.488;9.202;2022-08-21T13:43:59;28.10;34.90
17208;DHT22;8720;48.488;9.202;2022-08-21T13:46:31;28.00;34.70
17208;DHT22;8720;48.488;9.202;2022-08-21T13:49:02;28.10;34.50
17208;DHT22;8720;48.488;9.202;2022-08-21T13:51:32;28.10;34.70
17208;DHT22;8720;48.488;9.202;2022-08-21T13:54:00;28.10;34.70
17208;DHT22;8720;48.488;9.202;2022-08-21T13:56:32;28.20;34.80
17208;DHT22;8720;48.488;9.202;2022-08-21T13:59:08;28.10;34.20
17208;DHT22;8720;48.488;9.202;2022-08-21T14:01:49;28.20;34.50
17208;DHT22;8720;48.488;9.202;2022-08-21T14:04:29;28.20;34.20
17208;DHT22;8720;48.488;9.202;2022-08-21T14:07:01;28.20;34.50
17208;DHT22;8720;48.488;9.202;2022-08-21T14:09:32;28.20;34.40
17208;DHT22;8720;48.488;9.202;2022-08-21T14:12:13;28.20;33.90
17208;DHT22;8720;48.488;9.202;2022-08-21T14:14:43;28.20;34.10
17208;DHT22;8720;48.488;9.202;2022-08-21T14:17:14;28.20;34.00
17208;DHT22;8720;48.488;9.202;2022-08-21T14:19:54;28.20;33.60
17208;DHT22;8720;48.488;9.202;2022-08-21T14:22:30;28.20;34.10
17208;DHT22;8720;48.488;9.202;2022-08-21T14:25:07;28.30;33.50
17208;DHT22;8720;48.488;9.202;2022-08-21T14:27:43;28.20;33.90
17208;DHT22;8720;48.488;9.202;2022-08-21T14:30:18;28.30;33.70
17208;DHT22;8720;48.488;9.202;2022-08-21T14:32:48;28.30;33.70
17208;DHT22;8720;48.488;9.202;2022-08-21T14:35:15;28.30;33.40
17208;DHT22;8720;48.488;9.202;2022-08-21T14:37:43;28.30;33.00
17208;DHT22;8720;48.488;9.202;2022-08-21T14:40:11;28.30;33.20
17208;DHT22;8720;48.488;9.202;2022-08-21T14:42:41;28.40;33.40
17208;DHT22;8720;48.488;9.202;2022-08-21T14:45:13;28.40;32.90
17208;DHT22;8720;48.488;9.202;2022-08-21T14:47:42;28.40;33.10
17208;DHT22;8720;48.488;9.202;2022-08-21T14:50:10;28.50;33.50
17208;DHT22;8720;48.488;9.202;2022-08-21T14:52:40;28.50;32.80
17208;DHT22;8720;48.488;9.202;2022-08-21T14:55:09;28.50;32.80
17208;DHT22;8720;48.488;9.202;2022-08-21T14:57:41;28.50;32.90
17208;DHT22;8720;48.488;9.202;2022-08-21T15:00:12;28.50;32.50
17208;DHT22;8720;48.488;9.202;2022-08-21T15:02:42;28.60;32.30
17208;DHT22;8720;48.488;9.202;2022-08-21T15:05:10;28.60;32.30
17208;DHT22;8720;48.488;9.202;2022-08-21T15:07:37;28.60;32.20
17208;DHT22;8720;48.488;9.202;2022-08-21T15:10:05;28.60;32.10
17208;DHT22;8720;48.488;9.202;2022-08-21T15:12:34;28.60;32.20
17208;DHT22;8720;48.488;9.202;2022-08-21T15:15:05;28.60;32.60
17208;DHT22;8720;48.488;9.202;2022-08-21T15:17:33;28.50;32.10
17208;DHT22;8720;48.488;9.202;2022-08-21T15:20:03;28.50;32.20
17208;DHT22;8720;48.488;9.202;2022-08-21T15:22:32;28.50;32.30
17208;DHT22;8720;48.488;9.202;2022-08-21T15:24:59;28.50;32.00
17208;DHT22;8720;48.488;9.202;2022-08-21T15:27:27;28.50;31.90
17208;DHT22;8720;48.488;9.202;2022-08-21T15:29:55;28.50;31.60
17208;DHT22;8720;48.488;9.202;2022-08-21T15:32:26;28.50;31.70
17208;DHT22;8720;48.488;9.202;2022-08-21T15:34:57;28.50;31.10
17208;DHT22;8720;48.488;9.202;2022-08-21T15:37:25;28.50;31.30
17208;DHT22;8720;48.488;9.202;2022-08-21T15:39:53;28.60;31.40
17208;DHT22;8720;48.488;9.202;2022-08-21T15:42:21;28.50;31.20
17208;DHT22;8720;48.488;9.202;2022-08-21T15:44:49;28.60;31.40
17208;DHT22;8720;48.488;9.202;2022-08-21T15:47:19;28.50;31.60
17208;DHT22;8720;48.488;9.202;2022-08-21T15:49:51;28.50;31.20
17208;DHT22;8720;48.488;9.202;2022-08-21T15:52:20;28.50;30.90
17208;DHT22;8720;48.488;9.202;2022-08-21T15:54:49;28.50;30.70
17208;DHT22;8720;48.488;9.202;2022-08-21T15:57:18;28.50;30.80
17208;DHT22;8720;48.488;9.202;2022-08-21T15:59:50;28.50;30.90
17208;DHT22;8720;48.488;9.202;2022-08-21T16:02:23;28.50;30.80
17208;DHT22;8720;48.488;9.202;2022-08-21T16:04:54;28.40;30.50
17208;DHT22;8720;48.488;9.202;2022-08-21T16:07:22;28.40;30.50
17208;DHT22;8720;48.488;9.202;2022-08-21T16:09:50;28.40;30.60
17208;DHT22;8720;48.488;9.202;2022-08-21T16:12:21;28.40;30.80
17208;DHT22;8720;48.488;9.202;2022-08-21T16:14:52;28.40;30.60
17208;DHT22;8720;48.488;9.202;2022-08-21T16:17:21;28.40;30.80